Time;durP1;ratioP1;P1;durP2;ratioP2;P2;SDS_P1;SDS_P2;PMS_P1;PMS_P2;Temp;Humidity;BMP_temperature;BMP_pressure;BME280_temperature;BME280_humidity;BME280_pressure;Samples;Min_cycle;Max_cycle;Signal;HPM_P1;HPM_P2
2021/11/09 00:02:24;;;;;;;21.88;10.07;;;6.30;99.90;;;;;;5009093;28;20026;-61
2021/11/09 00:04:54;;;;;;;19.05;8.60;;;6.30;99.90;;;;;;4999402;28;20092;-61
2021/11/09 00:09:59;;;;;;;18.63;9.27;;;6.20;99.90;;;;;;4991350;28;20033;-61
2021/11/09 00:12:29;;;;;;;;;;;6.20;99.90;;;;;;4989933;28;20401;-60
2021/11/09 00:14:57;;;;;;;13.30;6.60;;;6.10;99.90;;;;;;4990877;28;19972;-60
2021/11/09 00:17:23;;;;;;;11.75;5.82;;;6.10;99.90;;;;;;4988739;28;20030;-61
2021/11/09 00:19:50;;;;;;;10.02;5.22;;;6.20;99.90;;;;;;4990198;28;20390;-60
2021/11/09 00:22:16;;;;;;;12.80;6.30;;;6.20;99.90;;;;;;4990175;28;20022;-60
2021/11/09 00:24:42;;;;;;;12.90;7.45;;;6.20;99.90;;;;;;4990773;28;20045;-60
2021/11/09 00:27:32;;;;;;;14.93;7.57;;;6.30;99.90;;;;;;4974021;28;20103;-61
2021/11/09 00:29:57;;;;;;;15.85;7.13;;;6.30;99.90;;;;;;4990463;28;20033;-61
2021/11/09 00:32:23;;;;;;;17.50;8.02;;;6.20;99.90;;;;;;4989773;28;20022;-60
2021/11/09 00:34:49;;;;;;;19.50;10.02;;;6.20;99.90;;;;;;4991541;28;20097;-61
2021/11/09 00:37:15;;;;;;;22.63;8.82;;;6.10;99.90;;;;;;4973793;28;20026;-61
2021/11/09 00:39:42;;;;;;;21.05;9.38;;;6.10;99.90;;;;;;4973673;28;20113;-61
2021/11/09 00:42:08;;;;;;;20.67;9.93;;;6.10;99.90;;;;;;4990814;28;20517;-60
2021/11/09 00:44:34;;;;;;;17.05;8.90;;;6.00;99.90;;;;;;4990154;28;20081;-60
2021/11/09 00:46:59;;;;;;;17.00;8.35;;;6.00;99.90;;;;;;4990707;28;20023;-60
2021/11/09 00:49:25;;;;;;;14.57;7.15;;;6.00;99.90;;;;;;4973052;28;20537;-61
2021/11/09 00:51:52;;;;;;;21.67;9.15;;;6.00;99.90;;;;;;4972055;28;20105;-60
2021/11/09 00:54:18;;;;;;;19.85;9.43;;;6.00;99.90;;;;;;4989315;28;20030;-60
2021/11/09 00:56:45;;;;;;;14.88;7.20;;;6.00;99.90;;;;;;4989667;28;20022;-61
2021/11/09 00:59:11;;;;;;;20.90;9.15;;;6.00;99.90;;;;;;4990266;28;20033;-60
2021/11/09 01:01:37;;;;;;;14.98;8.32;;;6.00;99.90;;;;;;4990036;28;20034;-61
2021/11/09 01:04:04;;;;;;;25.27;10.10;;;5.90;99.90;;;;;;4987903;28;20042;-60
2021/11/09 01:06:31;;;;;;;14.73;8.25;;;5.90;99.90;;;;;;4990411;28;20077;-60
2021/11/09 01:08:57;;;;;;;15.55;8.93;;;5.80;99.90;;;;;;4973321;28;20026;-60
2021/11/09 01:11:23;;;;;;;14.45;8.50;;;5.80;99.90;;;;;;4988835;28;20053;-61
2021/11/09 01:13:49;;;;;;;16.85;8.70;;;5.80;99.90;;;;;;4990263;28;20089;-61
2021/11/09 01:16:16;;;;;;;20.77;9.20;;;5.80;99.90;;;;;;4989619;28;20030;-60
2021/11/09 01:18:46;;;;;;;16.42;8.45;;;5.80;99.90;;;;;;4990556;28;20030;-60
2021/11/09 01:21:14;;;;;;;24.55;9.25;;;5.80;99.90;;;;;;4990089;28;20386;-61
2021/11/09 01:23:43;;;;;;;18.88;9.38;;;5.70;99.90;;;;;;4989850;28;20478;-60
2021/11/09 01:26:09;;;;;;;19.35;10.02;;;5.70;99.90;;;;;;4989746;28;20110;-60
2021/11/09 01:28:35;;;;;;;17.70;10.27;;;5.70;99.90;;;;;;4989970;28;20031;-61
2021/11/09 01:31:01;;;;;;;31.70;10.25;;;5.70;99.90;;;;;;4989044;28;20109;-60
2021/11/09 01:33:27;;;;;;;20.02;9.20;;;5.70;99.90;;;;;;4988618;28;20097;-60
2021/11/09 01:35:54;;;;;;;24.60;9.63;;;5.70;99.90;;;;;;4988653;28;20074;-60
2021/11/09 01:38:19;;;;;;;27.90;10.43;;;5.70;99.90;;;;;;4989581;28;20026;-60
2021/11/09 01:40:46;;;;;;;20.55;9.05;;;5.60;99.90;;;;;;4988592;28;20058;-60
2021/11/09 01:43:13;;;;;;;20.60;9.43;;;5.60;99.90;;;;;;4982137;28;20030;-60
2021/11/09 01:45:39;;;;;;;17.20;9.50;;;5.60;99.90;;;;;;4988244;28;20503;-60
2021/11/09 01:48:05;;;;;;;21.33;10.15;;;5.50;99.90;;;;;;4990499;28;20096;-60
2021/11/09 01:50:35;;;;;;;25.30;9.90;;;5.50;99.90;;;;;;4989313;28;20065;-60
2021/11/09 01:53:01;;;;;;;;;;;5.50;99.90;;;;;;4990797;28;20025;-60
2021/11/09 01:55:29;;;;;;;15.93;9.10;;;5.40;99.90;;;;;;4990236;28;19909;-61
2021/11/09 01:57:55;;;;;;;20.75;9.25;;;5.40;99.90;;;;;;4988551;28;20023;-61
2021/11/09 02:00:26;;;;;;;25.83;10.80;;;5.40;99.90;;;;;;4986587;28;20109;-60
2021/11/09 02:02:52;;;;;;;17.50;9.02;;;5.40;99.90;;;;;;4990132;28;20479;-60
2021/11/09 02:05:19;;;;;;;17.02;8.93;;;5.40;99.90;;;;;;4991632;28;20163;-60
2021/11/09 02:07:53;;;;;;;20.75;9.95;;;5.40;99.90;;;;;;4993175;28;20093;-60
2021/11/09 02:10:25;;;;;;;20.13;9.65;;;5.40;99.90;;;;;;4994102;28;20027;-60
2021/11/09 02:12:52;;;;;;;21.52;9.13;;;5.40;99.90;;;;;;4993877;28;20040;-60
2021/11/09 02:15:18;;;;;;;23.73;9.63;;;5.30;99.90;;;;;;4992014;28;20030;-60
2021/11/09 02:17:45;;;;;;;21.27;9.55;;;5.30;99.90;;;;;;4992232;28;20030;-60
2021/11/09 02:20:15;;;;;;;18.48;8.43;;;5.30;99.90;;;;;;4993469;28;20053;-60
2021/11/09 02:22:41;;;;;;;25.33;9.73;;;5.30;99.90;;;;;;4991292;28;20117;-60
2021/11/09 02:25:10;;;;;;;22.33;10.75;;;5.30;99.90;;;;;;4993904;28;20037;-60
2021/11/09 02:27:36;;;;;;;23.33;10.30;;;5.30;99.90;;;;;;4992279;28;20058;-61
2021/11/09 02:30:03;;;;;;;21.13;9.82;;;5.20;99.90;;;;;;4992387;28;20038;-60
2021/11/09 02:32:29;;;;;;;26.88;10.68;;;5.20;99.90;;;;;;4992835;28;20102;-60
2021/11/09 02:34:54;;;;;;;30.58;11.80;;;5.20;99.90;;;;;;4992524;28;20133;-60
2021/11/09 02:37:21;;;;;;;25.02;10.55;;;5.10;99.90;;;;;;4992154;28;20479;-60
2021/11/09 02:39:46;;;;;;;25.42;11.15;;;5.10;99.90;;;;;;4991667;28;20036;-61
2021/11/09 02:42:17;;;;;;;26.10;11.45;;;5.10;99.90;;;;;;4992932;28;20014;-60
2021/11/09 02:45:00;;;;;;;23.88;10.93;;;5.10;99.90;;;;;;4992436;28;20050;-60
2021/11/09 02:47:30;;;;;;;24.83;11.63;;;5.10;99.90;;;;;;4991255;28;20394;-60
2021/11/09 02:50:09;;;;;;;24.90;10.30;;;5.10;99.90;;;;;;4990789;28;20034;-60
2021/11/09 02:52:36;;;;;;;21.53;11.20;;;5.00;99.90;;;;;;4992682;28;20081;-60
2021/11/09 02:55:07;;;;;;;27.30;11.13;;;5.00;99.90;;;;;;4992616;28;20594;-60
2021/11/09 02:57:43;;;;;;;22.35;11.27;;;5.00;99.90;;;;;;4991104;28;20026;-60
2021/11/09 03:02:45;;;;;;;30.30;12.40;;;4.90;99.90;;;;;;4991704;28;20018;-60
2021/11/09 03:07:51;;;;;;;32.10;12.40;;;4.90;99.90;;;;;;4992729;28;20093;-60
2021/11/09 03:12:45;;;;;;;29.13;12.70;;;4.90;99.90;;;;;;4992652;28;20076;-60
2021/11/09 03:15:17;;;;;;;31.63;13.25;;;4.80;99.90;;;;;;4991609;28;20031;-60
2021/11/09 03:17:54;;;;;;;35.38;13.68;;;4.80;99.90;;;;;;4991868;28;20018;-60
2021/11/09 03:20:32;;;;;;;31.80;13.25;;;4.70;99.90;;;;;;4989765;28;20022;-60
2021/11/09 03:39:59;;;;;;;32.40;14.77;;;4.70;99.90;;;;;;4991720;28;20023;-60
2021/11/09 03:47:27;;;;;;;33.05;15.80;;;4.60;99.90;;;;;;4988460;28;20026;-60
2021/11/09 03:49:54;;;;;;;36.60;15.05;;;4.60;99.90;;;;;;4988815;28;20102;-60
2021/11/09 03:52:26;;;;;;;32.58;14.57;;;4.60;99.90;;;;;;4990107;28;20019;-60
2021/11/09 03:55:01;;;;;;;36.30;15.43;;;4.60;99.90;;;;;;4991356;28;20026;-60
2021/11/09 03:57:30;;;;;;;30.88;15.43;;;4.50;99.90;;;;;;4990529;28;20045;-60
2021/11/09 04:05:20;;;;;;;35.33;15.75;;;4.50;99.90;;;;;;4989138;28;20850;-60
2021/11/09 04:10:46;;;;;;;33.50;15.20;;;4.50;99.90;;;;;;4990578;28;20541;-60
2021/11/09 04:18:28;;;;;;;41.47;17.00;;;4.50;99.90;;;;;;4991107;28;20022;-60
2021/11/09 04:21:08;;;;;;;35.40;17.38;;;4.50;99.90;;;;;;4989138;28;20019;-60
2021/11/09 04:29:20;;;;;;;37.50;16.63;;;4.50;99.90;;;;;;4989954;28;20062;-60
2021/11/09 04:37:58;;;;;;;36.20;16.88;;;4.40;99.90;;;;;;4989783;28;20073;-60
2021/11/09 04:39:51;;;;;;;37.97;18.25;;;4.40;99.90;;;;;;4990340;28;20566;-60
2021/11/09 05:09:08;;;;;;;42.80;17.92;;;4.40;99.90;;;;;;5008971;28;20076;-60
2021/11/09 05:11:37;;;;;;;31.35;15.95;;;4.30;99.90;;;;;;5010106;28;20058;-60
2021/11/09 05:14:04;;;;;;;40.85;16.60;;;4.30;99.90;;;;;;4991250;28;20034;-60
2021/11/09 05:16:29;;;;;;;36.50;16.67;;;4.30;99.90;;;;;;5009916;28;20026;-60
2021/11/09 05:18:55;;;;;;;39.25;16.65;;;4.30;99.90;;;;;;5008318;28;20565;-60
2021/11/09 05:21:21;;;;;;;38.88;17.45;;;4.30;99.90;;;;;;5009182;28;20137;-60
2021/11/09 05:23:46;;;;;;;37.08;17.10;;;4.30;99.90;;;;;;5009020;28;20014;-60
2021/11/09 05:26:12;;;;;;;32.17;16.88;;;4.30;99.90;;;;;;5009280;28;20018;-60
2021/11/09 05:28:38;;;;;;;40.85;17.27;;;4.30;99.90;;;;;;5009616;28;20025;-60
2021/11/09 05:31:04;;;;;;;38.30;17.38;;;4.30;99.90;;;;;;5010180;28;20390;-60
2021/11/09 05:33:32;;;;;;;36.00;18.25;;;4.30;99.90;;;;;;5009290;28;20029;-60
2021/11/09 05:35:58;;;;;;;35.42;16.98;;;4.30;99.90;;;;;;5007050;28;20040;-60
2021/11/09 05:38:28;;;;;;;33.28;16.10;;;4.30;99.90;;;;;;5010723;28;20022;-60
2021/11/09 05:40:57;;;;;;;39.13;17.25;;;4.30;99.90;;;;;;5012610;28;20017;-60
2021/11/09 05:43:23;;;;;;;37.85;16.48;;;4.30;99.90;;;;;;5011280;28;20021;-60
2021/11/09 05:45:49;;;;;;;37.72;17.00;;;4.30;99.90;;;;;;5014245;28;20025;-60
2021/11/09 05:48:15;;;;;;;43.13;17.45;;;4.30;99.90;;;;;;5011368;28;20463;-60
2021/11/09 05:50:40;;;;;;;37.20;17.33;;;4.30;99.90;;;;;;5005885;28;20084;-60
2021/11/09 05:53:06;;;;;;;33.53;15.90;;;4.30;99.90;;;;;;5014233;28;20116;-60
2021/11/09 05:55:31;;;;;;;39.05;17.05;;;4.30;99.90;;;;;;5012616;28;20049;-60
2021/11/09 05:57:57;;;;;;;42.95;17.73;;;4.30;99.90;;;;;;5013551;28;20030;-60
2021/11/09 06:00:23;;;;;;;39.38;17.20;;;4.30;99.90;;;;;;5012780;28;20124;-60
2021/11/09 06:02:49;;;;;;;39.22;16.98;;;4.30;99.90;;;;;;5013854;28;20022;-60
2021/11/09 06:05:15;;;;;;;49.67;17.92;;;4.30;99.90;;;;;;5011554;28;20038;-60
2021/11/09 06:07:41;;;;;;;42.30;17.67;;;4.30;99.90;;;;;;5011418;28;20505;-60
2021/11/09 06:10:08;;;;;;;39.22;18.23;;;4.30;99.90;;;;;;5012648;28;20089;-60
2021/11/09 06:12:34;;;;;;;40.05;16.90;;;4.30;99.90;;;;;;5010065;28;20054;-60
2021/11/09 06:15:03;;;;;;;41.08;18.48;;;4.30;99.90;;;;;;5004100;28;20478;-60
2021/11/09 06:17:29;;;;;;;37.75;17.23;;;4.30;99.90;;;;;;4991662;28;20051;-60
2021/11/09 06:19:55;;;;;;;46.40;17.50;;;4.30;99.90;;;;;;5011853;28;20583;-60
2021/11/09 06:22:22;;;;;;;48.63;17.90;;;4.30;99.90;;;;;;4995568;28;20041;-60
2021/11/09 06:24:48;;;;;;;36.95;18.25;;;4.30;99.90;;;;;;4995118;28;20024;-60
2021/11/09 06:27:15;;;;;;;46.20;17.33;;;4.30;99.90;;;;;;5012567;28;20026;-60
2021/11/09 06:30:19;;;;;;;37.88;16.95;;;4.30;99.90;;;;;;5012852;28;20068;-60
2021/11/09 06:32:44;;;;;;;42.25;17.48;;;4.30;99.90;;;;;;5014111;28;20121;-60
2021/11/09 06:35:10;;;;;;;39.50;17.30;;;4.30;99.90;;;;;;5010636;28;20483;-60
2021/11/09 06:37:36;;;;;;;34.90;16.58;;;4.30;99.90;;;;;;5014269;28;20149;-60
2021/11/09 06:40:04;;;;;;;38.22;17.73;;;4.30;99.90;;;;;;4995022;28;20061;-60
2021/11/09 06:42:31;;;;;;;39.67;17.63;;;4.30;99.90;;;;;;5008054;28;20028;-59
2021/11/09 06:44:56;;;;;;;45.33;16.90;;;4.30;99.90;;;;;;4995705;28;20115;-60
2021/11/09 06:47:22;;;;;;;45.25;19.02;;;4.30;99.90;;;;;;5008615;28;20107;-60
2021/11/09 06:49:48;;;;;;;36.95;16.80;;;4.30;99.90;;;;;;5013667;28;20029;-60
2021/11/09 06:52:14;;;;;;;43.10;17.48;;;4.30;99.90;;;;;;5013886;28;20030;-60
2021/11/09 06:54:45;;;;;;;45.33;17.52;;;4.30;99.90;;;;;;5013907;28;20036;-60
2021/11/09 06:57:11;;;;;;;45.05;18.38;;;4.30;99.90;;;;;;5013699;28;20062;-59
2021/11/09 06:59:37;;;;;;;42.83;17.13;;;4.30;99.90;;;;;;5010335;28;20026;-60
2021/11/09 07:02:04;;;;;;;40.15;18.58;;;4.30;99.90;;;;;;4991826;28;20570;-60
2021/11/09 07:04:30;;;;;;;40.58;17.70;;;4.30;99.90;;;;;;5013616;28;20117;-60
2021/11/09 07:06:56;;;;;;;41.05;17.75;;;4.30;99.90;;;;;;5010594;28;20113;-60
2021/11/09 07:09:24;;;;;;;44.53;17.40;;;4.30;99.90;;;;;;5010558;28;20057;-60
2021/11/09 07:11:50;;;;;;;42.10;16.58;;;4.30;99.90;;;;;;5010146;28;20397;-60
2021/11/09 07:14:24;;;;;;;42.53;18.23;;;4.40;99.90;;;;;;5013902;28;20063;-60
2021/11/09 07:16:52;;;;;;;42.85;18.13;;;4.30;99.90;;;;;;4990372;28;20495;-60
2021/11/09 07:19:18;;;;;;;49.60;18.33;;;4.30;99.90;;;;;;5011008;28;20466;-60
2021/11/09 07:21:43;;;;;;;40.45;18.95;;;4.40;99.90;;;;;;5013963;28;20029;-60
2021/11/09 07:24:09;;;;;;;42.67;19.27;;;4.40;99.90;;;;;;5010793;28;20030;-60
2021/11/09 07:27:02;;;;;;;46.30;19.25;;;4.40;99.90;;;;;;5012348;28;20034;-60
2021/11/09 07:29:27;;;;;;;44.30;16.65;;;4.40;99.90;;;;;;5012941;28;20072;-60
2021/11/09 07:31:55;;;;;;;41.10;17.33;;;4.40;99.90;;;;;;5009579;28;20057;-60
2021/11/09 07:34:21;;;;;;;42.20;17.48;;;4.50;99.90;;;;;;5012643;28;20026;-60
2021/11/09 07:36:46;;;;;;;34.90;17.85;;;4.50;99.90;;;;;;5012078;28;20041;-60
2021/11/09 07:39:12;;;;;;;37.60;17.65;;;4.60;99.90;;;;;;5011907;28;20030;-60
2021/11/09 07:41:40;;;;;;;39.15;19.33;;;4.60;99.90;;;;;;5011913;28;20394;-60
2021/11/09 07:44:07;;;;;;;44.50;18.42;;;4.70;99.90;;;;;;5011809;28;20013;-60
2021/11/09 07:46:34;;;;;;;38.72;18.02;;;4.70;99.90;;;;;;5011970;28;20018;-60
2021/11/09 07:48:59;;;;;;;39.13;18.40;;;4.80;99.90;;;;;;5012865;28;20034;-60
2021/11/09 07:51:25;;;;;;;39.53;18.88;;;4.80;99.90;;;;;;5014249;28;20398;-60
2021/11/09 07:53:52;;;;;;;43.90;17.67;;;4.80;99.90;;;;;;5009408;28;20145;-60
2021/11/09 07:56:23;;;;;;;33.78;16.23;;;4.90;99.90;;;;;;5011298;28;20033;-60
2021/11/09 08:01:33;;;;;;;42.20;18.52;;;5.00;99.90;;;;;;5011126;28;20018;-60
2021/11/09 08:04:08;;;;;;;37.30;18.33;;;5.00;99.90;;;;;;5013309;28;20532;-60
2021/11/09 08:09:22;;;;;;;40.45;17.42;;;5.10;99.90;;;;;;5011182;28;20382;-60
2021/11/09 08:11:49;;;;;;;41.42;18.52;;;5.20;99.90;;;;;;4995724;28;20053;-60
2021/11/09 08:20:58;;;;;;;42.42;16.92;;;5.40;99.90;;;;;;4942736;28;20469;-60
2021/11/09 08:23:24;;;;;;;38.33;16.33;;;5.50;99.90;;;;;;4970992;28;20082;-60
2021/11/09 08:25:49;;;;;;;35.33;16.83;;;5.50;99.90;;;;;;5005963;28;20038;-60
2021/11/09 08:28:15;;;;;;;46.08;17.30;;;5.60;99.90;;;;;;5012142;28;20026;-60
2021/11/09 08:30:40;;;;;;;35.85;17.95;;;5.70;99.90;;;;;;5009643;28;20037;-60
2021/11/09 08:33:07;;;;;;;43.70;17.23;;;5.80;99.90;;;;;;4990873;28;20037;-60
2021/11/09 08:36:03;;;;;;;;;;;;;;;;;;;;;
2021/11/09 08:38:29;;;;;;;31.40;14.85;;;6.00;99.90;;;;;;5009870;28;20032;-60
2021/11/09 08:40:54;;;;;;;33.20;15.98;;;6.10;99.90;;;;;;5009854;28;20361;-60
2021/11/09 08:43:24;;;;;;;37.35;16.58;;;6.10;99.90;;;;;;5002550;28;20152;-60
2021/11/09 08:45:57;;;;;;;30.48;15.82;;;6.20;99.90;;;;;;5007123;28;20088;-61
2021/11/09 08:48:24;;;;;;;29.95;14.98;;;6.30;99.90;;;;;;5012093;28;20030;-61
2021/11/09 08:50:53;;;;;;;33.53;15.75;;;6.30;99.90;;;;;;5011242;28;20105;-60
2021/11/09 08:53:34;;;;;;;34.92;14.35;;;6.50;99.90;;;;;;5012247;28;20112;-60
2021/11/09 08:56:28;;;;;;;36.58;15.57;;;6.50;99.90;;;;;;5011357;28;20514;-60
2021/11/09 09:04:16;;;;;;;29.77;14.38;;;6.80;99.90;;;;;;4995931;28;20030;-60
2021/11/09 09:06:50;;;;;;;30.77;14.15;;;6.90;99.90;;;;;;5011177;28;20073;-60
2021/11/09 09:12:25;;;;;;;31.50;13.32;;;7.10;99.90;;;;;;4993741;28;20038;-60
2021/11/09 09:14:51;;;;;;;32.58;13.60;;;7.20;99.90;;;;;;5011314;28;20018;-61
2021/11/09 09:17:18;;;;;;;27.58;12.30;;;7.40;99.90;;;;;;4987687;28;20121;-60
2021/11/09 09:19:51;;;;;;;28.10;12.52;;;7.50;99.90;;;;;;5003409;28;20457;-61
2021/11/09 09:22:19;;;;;;;30.15;12.68;;;7.50;99.90;;;;;;5009778;28;20053;-60
2021/11/09 09:25:03;;;;;;;25.88;13.05;;;7.70;99.90;;;;;;4983456;28;20069;-61
2021/11/09 09:28:19;;;;;;;32.95;13.85;;;7.80;99.90;;;;;;5007991;28;20022;-60
2021/11/09 09:33:13;;;;;;;29.90;15.10;;;7.90;99.90;;;;;;5002684;28;20394;-60
2021/11/09 09:52:57;;;;;;;28.85;11.25;;;9.10;99.90;;;;;;5011260;28;20390;-61
2021/11/09 09:57:17;;;;;;;26.15;11.50;;;9.70;99.90;;;;;;5011245;28;20084;-61
2021/11/09 09:59:45;;;;;;;22.27;9.90;;;10.30;99.40;;;;;;5010111;28;20060;-61
2021/11/09 10:02:28;;;;;;;17.63;8.85;;;10.70;98.10;;;;;;5009348;28;20028;-61
2021/11/09 10:05:10;;;;;;;21.48;8.75;;;10.80;97.20;;;;;;5010437;28;20061;-61
2021/11/09 10:07:38;;;;;;;26.92;9.98;;;11.00;96.80;;;;;;5010281;28;20038;-61
2021/11/09 10:10:09;;;;;;;19.45;9.02;;;11.20;95.90;;;;;;5009903;28;20084;-61
2021/11/09 10:13:27;;;;;;;;;;;;;;;;;;;;;
2021/11/09 10:22:59;;;;;;;18.42;7.40;;;12.20;93.70;;;;;;4962615;28;20097;-61
2021/11/09 10:25:26;;;;;;;21.23;7.28;;;12.60;92.20;;;;;;5010284;28;20382;-61
2021/11/09 10:27:59;;;;;;;16.42;5.97;;;13.20;90.80;;;;;;5013310;28;20168;-61
2021/11/09 10:31:21;;;;;;;;;;;;;;;;;;;;;
2021/11/09 10:34:26;;;;;;;13.93;5.82;;;14.60;85.90;;;;;;4934827;28;20038;-61
2021/11/09 10:45:19;;;;;;;17.83;5.82;;;17.50;73.80;;;;;;4806027;29;20668;-61
2021/11/09 10:47:48;;;;;;;15.82;5.65;;;18.10;70.60;;;;;;4882331;29;20110;-61
2021/11/09 10:50:34;;;;;;;18.13;7.57;;;18.20;66.30;;;;;;4956634;28;20433;-62
2021/11/09 10:53:21;;;;;;;20.27;6.90;;;17.80;66.60;;;;;;4995566;28;20123;-61
2021/11/09 10:55:59;;;;;;;15.38;5.78;;;17.20;68.00;;;;;;5011979;28;20022;-61
2021/11/09 10:59:00;;;;;;;19.48;7.07;;;17.00;69.20;;;;;;5013313;28;20116;-61
2021/11/09 11:06:17;;;;;;;14.55;6.78;;;18.30;64.50;;;;;;5012813;28;20030;-61
2021/11/09 11:08:47;;;;;;;15.75;5.78;;;19.20;61.30;;;;;;5012972;28;20033;-61
2021/11/09 11:11:26;;;;;;;15.15;5.38;;;20.00;60.20;;;;;;5009790;28;20022;-61
2021/11/09 11:14:05;;;;;;;;;;;21.10;58.40;;;;;;5011551;28;20545;-62
2021/11/09 11:16:44;;;;;;;11.85;5.18;;;22.20;56.20;;;;;;5020663;28;19925;-62
2021/11/09 11:19:12;;;;;;;18.10;7.55;;;23.30;54.10;;;;;;5007362;28;20087;-62
2021/11/09 11:21:38;;;;;;;15.25;6.10;;;23.90;49.70;;;;;;5012748;28;20066;-62
2021/11/09 11:24:05;;;;;;;14.63;5.75;;;24.10;48.40;;;;;;5013672;28;20489;-62
2021/11/09 11:26:33;;;;;;;19.83;6.90;;;24.30;48.20;;;;;;5010848;28;20030;-62
2021/11/09 11:28:59;;;;;;;17.85;7.20;;;24.70;46.30;;;;;;5013105;28;20084;-62
2021/11/09 11:31:27;;;;;;;15.63;6.25;;;24.40;46.50;;;;;;5013371;28;20037;-63
2021/11/09 11:36:51;;;;;;;16.67;5.82;;;24.70;46.00;;;;;;5002574;28;20498;-62
2021/11/09 11:39:21;;;;;;;14.32;6.20;;;24.60;45.60;;;;;;5012218;28;20045;-62
2021/11/09 11:42:41;;;;;;;;;;;;;;;;;;;;;
2021/11/09 11:45:08;;;;;;;13.82;6.78;;;25.40;45.60;;;;;;4978342;28;20494;-62
2021/11/09 11:47:33;;;;;;;11.05;5.18;;;25.80;44.20;;;;;;5006907;28;20426;-62
2021/11/09 11:50:07;;;;;;;16.17;6.30;;;25.90;44.00;;;;;;4989388;28;20545;-62
2021/11/09 11:52:42;;;;;;;19.67;6.65;;;26.20;43.70;;;;;;4984084;28;20065;-62
2021/11/09 11:55:19;;;;;;;17.23;7.03;;;26.00;42.90;;;;;;5006957;28;20076;-62
2021/11/09 11:57:51;;;;;;;11.57;4.68;;;25.60;42.60;;;;;;5007220;28;20022;-62
2021/11/09 12:00:51;;;;;;;;;;;;;;;;;;;;;
2021/11/09 12:03:23;;;;;;;14.88;5.60;;;24.80;44.20;;;;;;5004363;28;20022;-62
2021/11/09 12:05:54;;;;;;;16.60;6.18;;;25.20;44.20;;;;;;5003452;28;20038;-62
2021/11/09 12:08:42;;;;;;;13.27;5.55;;;25.60;43.40;;;;;;5009656;28;20092;-62
2021/11/09 12:11:35;;;;;;;13.65;5.88;;;25.10;43.20;;;;;;5008172;28;20053;-62
2021/11/09 12:14:02;;;;;;;13.73;5.30;;;25.40;44.30;;;;;;5006471;28;20034;-62
2021/11/09 12:16:52;;;;;;;10.30;5.22;;;26.40;43.70;;;;;;5011005;28;20037;-62
2021/11/09 12:19:40;;;;;;;12.20;5.40;;;27.10;42.70;;;;;;5008989;28;20102;-62
2021/11/09 12:25:39;;;;;;;13.65;5.63;;;28.20;41.40;;;;;;4931185;29;20371;-62
2021/11/09 12:29:00;;;;;;;12.02;4.93;;;28.10;38.90;;;;;;5001555;28;20037;-62
2021/11/09 12:32:19;;;;;;;9.27;4.47;;;27.70;40.10;;;;;;4981738;28;20034;-62
2021/11/09 12:35:47;;;;;;;14.35;5.57;;;28.00;39.80;;;;;;4989388;28;20489;-62
2021/11/09 12:38:21;;;;;;;14.60;6.03;;;27.50;39.60;;;;;;5010168;28;20319;-62
2021/11/09 12:40:51;;;;;;;13.43;5.72;;;26.90;39.40;;;;;;5009866;28;20103;-62
2021/11/09 12:43:23;;;;;;;13.73;5.72;;;26.50;40.50;;;;;;5010232;28;20044;-62
2021/11/09 12:46:24;;;;;;;15.27;5.40;;;26.90;40.50;;;;;;5010291;28;20623;-62
2021/11/09 12:48:55;;;;;;;13.27;5.25;;;27.20;40.50;;;;;;5008157;28;20033;-62
2021/11/09 12:51:25;;;;;;;15.18;6.82;;;27.00;39.40;;;;;;5009159;28;20033;-62
2021/11/09 12:53:53;;;;;;;14.43;5.85;;;26.60;39.30;;;;;;4993685;28;20029;-62
2021/11/09 12:56:24;;;;;;;14.98;6.20;;;26.20;40.30;;;;;;5010599;28;20040;-62
2021/11/09 12:59:02;;;;;;;13.68;5.30;;;26.20;40.20;;;;;;5010150;28;20036;-62
2021/11/09 13:04:17;;;;;;;11.50;4.22;;;26.10;40.60;;;;;;4992788;28;20061;-63
2021/11/09 13:07:03;;;;;;;13.95;5.10;;;26.70;40.80;;;;;;5010223;28;20032;-62
2021/11/09 13:09:48;;;;;;;15.40;4.80;;;26.70;39.90;;;;;;5008569;28;20064;-62
2021/11/09 13:12:23;;;;;;;11.30;4.25;;;26.90;40.20;;;;;;5012052;28;20045;-62
2021/11/09 13:14:59;;;;;;;12.38;5.18;;;27.40;39.60;;;;;;4994457;28;20026;-62
2021/11/09 13:17:35;;;;;;;12.57;5.20;;;27.60;38.60;;;;;;5011644;28;20045;-62
2021/11/09 13:22:59;;;;;;;17.13;5.20;;;26.80;39.50;;;;;;5008064;28;20510;-62
2021/11/09 13:25:46;;;;;;;10.45;3.95;;;26.60;40.30;;;;;;5007024;28;20101;-62
2021/11/09 13:28:14;;;;;;;11.82;4.75;;;27.10;39.90;;;;;;4986014;28;20533;-62
2021/11/09 13:30:45;;;;;;;10.70;4.60;;;26.60;38.50;;;;;;5009984;28;20112;-62
2021/11/09 13:33:30;;;;;;;;;;;;;;;;;;;;;
2021/11/09 13:35:57;;;;;;;11.10;4.25;;;25.30;40.90;;;;;;5010403;28;20034;-62
2021/11/09 13:38:33;;;;;;;9.90;4.22;;;25.20;40.70;;;;;;5010033;28;20048;-62
2021/11/09 13:41:02;;;;;;;9.43;4.47;;;25.10;40.90;;;;;;5010286;28;20033;-62
2021/11/09 13:44:23;;;;;;;;;;;;;;;;;;;;;
2021/11/09 13:50:12;;;;;;;13.57;4.47;;;25.20;40.70;;;;;;4927354;28;20032;-62
2021/11/09 13:53:33;;;;;;;;;;;;;;;;;;;;;
2021/11/09 13:55:59;;;;;;;13.40;5.15;;;23.70;43.00;;;;;;5003132;28;20026;-63
2021/11/09 13:58:25;;;;;;;12.35;4.20;;;22.00;45.00;;;;;;5009452;28;20422;-63
2021/11/09 14:00:56;;;;;;;14.82;4.07;;;20.60;47.60;;;;;;5008751;28;20439;-62
2021/11/09 14:06:56;;;;;;;16.02;4.75;;;19.10;51.80;;;;;;4957655;28;20547;-62
2021/11/09 14:09:46;;;;;;;;;;;18.50;53.00;;;;;;5008547;28;20032;-62
2021/11/09 14:15:19;;;;;;;14.80;4.50;;;17.20;56.10;;;;;;5011516;28;20036;-62
2021/11/09 14:17:45;;;;;;;11.02;4.32;;;16.80;56.50;;;;;;5007759;28;20433;-62
2021/11/09 14:20:15;;;;;;;15.23;4.65;;;16.60;57.30;;;;;;5009563;28;20527;-62
2021/11/09 14:22:42;;;;;;;14.27;4.53;;;16.50;58.20;;;;;;5013014;28;20041;-62
2021/11/09 14:25:24;;;;;;;15.02;4.68;;;16.30;58.10;;;;;;5009684;28;20084;-62
2021/11/09 14:27:49;;;;;;;14.77;4.10;;;16.20;58.40;;;;;;5009665;28;20041;-62
2021/11/09 14:30:27;;;;;;;16.35;5.13;;;16.10;59.20;;;;;;4994960;28;20478;-62
2021/11/09 14:33:13;;;;;;;16.80;4.63;;;16.00;59.60;;;;;;5010459;28;20029;-62
2021/11/09 14:35:39;;;;;;;14.85;4.97;;;16.00;59.60;;;;;;5008337;28;20108;-62
2021/11/09 14:38:14;;;;;;;11.20;4.35;;;15.70;59.90;;;;;;4994244;28;20116;-62
2021/11/09 14:40:54;;;;;;;11.80;3.97;;;15.80;60.00;;;;;;5009295;28;20113;-62
2021/11/09 14:43:28;;;;;;;12.90;3.90;;;15.70;60.30;;;;;;4992081;28;20049;-63
2021/11/09 14:46:05;;;;;;;11.73;4.03;;;15.60;61.00;;;;;;5009785;28;20021;-62
2021/11/09 14:56:22;;;;;;;11.63;3.33;;;15.10;62.80;;;;;;5010097;28;20026;-62
2021/11/09 14:58:51;;;;;;;12.30;3.92;;;15.00;63.40;;;;;;5011315;28;20087;-62
2021/11/09 15:01:29;;;;;;;12.73;3.60;;;14.80;63.40;;;;;;5011979;28;20314;-62
2021/11/09 15:04:08;;;;;;;14.10;4.22;;;14.80;63.80;;;;;;5012091;28;20038;-62
2021/11/09 15:06:52;;;;;;;10.27;3.47;;;14.60;64.00;;;;;;5012246;28;20515;-62
2021/11/09 15:26:09;;;;;;;15.27;3.45;;;13.90;68.20;;;;;;5011035;28;20056;-62
2021/11/09 15:28:51;;;;;;;15.85;4.18;;;13.70;69.10;;;;;;4982603;28;20033;-62
2021/11/09 15:31:34;;;;;;;15.20;3.65;;;13.50;69.90;;;;;;5013351;28;20033;-62
2021/11/09 15:34:19;;;;;;;17.70;4.30;;;13.30;70.60;;;;;;5012332;28;20429;-62
2021/11/09 15:36:55;;;;;;;16.23;5.03;;;13.20;70.80;;;;;;4992833;28;20038;-62
2021/11/09 15:39:25;;;;;;;17.05;4.95;;;13.10;71.40;;;;;;5010416;28;20113;-62
2021/11/09 15:41:51;;;;;;;16.58;4.72;;;13.00;71.80;;;;;;4993940;28;20025;-62
2021/11/09 15:44:18;;;;;;;19.67;5.07;;;13.00;72.30;;;;;;5012171;28;20033;-62
2021/11/09 15:46:45;;;;;;;16.63;4.82;;;12.90;72.70;;;;;;5013678;28;20213;-62
2021/11/09 15:49:11;;;;;;;14.15;4.10;;;12.80;72.80;;;;;;4994923;28;20026;-62
2021/11/09 15:51:38;;;;;;;12.82;3.95;;;12.80;73.20;;;;;;5013727;28;20029;-62
2021/11/09 15:54:04;;;;;;;13.55;4.93;;;12.70;73.40;;;;;;5011457;28;20363;-62
2021/11/09 15:56:30;;;;;;;14.35;4.00;;;12.60;73.60;;;;;;4994477;28;20401;-62
2021/11/09 15:58:57;;;;;;;18.73;4.80;;;12.60;74.00;;;;;;4999793;28;20034;-62
2021/11/09 16:01:25;;;;;;;12.73;4.22;;;12.50;74.20;;;;;;5001163;28;20482;-62
2021/11/09 16:03:50;;;;;;;16.42;4.20;;;12.50;74.40;;;;;;5011641;28;20104;-62
2021/11/09 16:06:28;;;;;;;10.95;3.58;;;12.40;74.50;;;;;;5011167;28;20502;-62
2021/11/09 16:08:54;;;;;;;13.60;3.20;;;12.40;74.40;;;;;;5006850;28;20050;-62
2021/11/09 16:11:20;;;;;;;12.73;2.50;;;12.40;74.10;;;;;;5011194;28;20033;-62
2021/11/09 16:13:45;;;;;;;12.02;2.92;;;12.50;73.90;;;;;;5011021;28;20026;-62
2021/11/09 16:16:16;;;;;;;10.20;2.88;;;12.50;73.60;;;;;;5010779;28;20034;-62
2021/11/09 16:18:41;;;;;;;14.60;3.10;;;12.60;73.30;;;;;;4993083;28;20033;-62
2021/11/09 16:21:09;;;;;;;10.82;2.90;;;12.60;73.10;;;;;;5010986;28;20473;-62
2021/11/09 16:23:35;;;;;;;9.77;2.70;;;12.60;73.10;;;;;;5011771;28;20170;-62
2021/11/09 16:26:01;;;;;;;9.57;2.40;;;12.60;73.10;;;;;;4995210;28;20390;-62